createdAt,value
2017-07-23T00:01:58.654Z,3.10
2017-07-23T00:04:26.133Z,2.80
2017-07-23T00:06:53.569Z,2.63
2017-07-23T00:09:21.050Z,2.50
2017-07-23T00:11:48.544Z,2.83
2017-07-23T00:14:16.018Z,2.60
2017-07-23T00:16:43.483Z,2.50
2017-07-23T00:19:10.957Z,2.50
2017-07-23T00:21:38.412Z,3.20
2017-07-23T00:24:05.890Z,3.20
2017-07-23T00:26:33.369Z,2.63
2017-07-23T00:29:00.843Z,2.57
2017-07-23T00:31:28.328Z,2.70
2017-07-23T00:33:55.842Z,2.67
2017-07-23T00:36:23.332Z,2.57
2017-07-23T00:38:50.787Z,2.60
2017-07-23T00:41:18.273Z,2.80
2017-07-23T00:43:45.734Z,2.47
2017-07-23T00:46:13.196Z,2.80
2017-07-23T00:48:40.644Z,2.80
2017-07-23T00:51:08.110Z,2.60
2017-07-23T00:53:35.594Z,2.37
2017-07-23T00:56:03.052Z,2.50
2017-07-23T00:58:30.549Z,2.70
2017-07-23T01:00:58.010Z,2.73
2017-07-23T01:03:25.511Z,2.70
2017-07-23T01:05:52.965Z,2.57
2017-07-23T01:08:20.454Z,2.60
2017-07-23T01:10:47.916Z,2.50
2017-07-23T01:13:15.393Z,2.83
2017-07-23T01:15:42.847Z,2.63
2017-07-23T01:18:10.317Z,2.63
2017-07-23T01:20:37.785Z,2.50
2017-07-23T01:23:05.242Z,2.40
2017-07-23T01:25:32.709Z,2.80
2017-07-23T01:28:00.188Z,2.73
2017-07-23T01:30:27.671Z,2.20
2017-07-23T01:32:55.111Z,2.40
2017-07-23T01:35:22.594Z,2.33
2017-07-23T01:37:50.052Z,2.73
2017-07-23T01:40:18.406Z,2.20
2017-07-23T01:42:45.854Z,2.40
2017-07-23T01:45:13.345Z,2.40
2017-07-23T01:47:40.806Z,2.57
2017-07-23T01:50:08.294Z,2.30
2017-07-23T01:55:09.730Z,2.10
2017-07-23T01:57:37.195Z,2.50
2017-07-23T02:00:04.682Z,2.80
2017-07-23T02:02:32.166Z,2.30
2017-07-23T02:04:59.623Z,2.47
2017-07-23T02:07:27.089Z,2.50
2017-07-23T02:09:54.525Z,2.37
2017-07-23T02:12:21.996Z,2.60
2017-07-23T02:14:49.446Z,2.40
2017-07-23T02:17:16.926Z,2.37
2017-07-23T02:19:44.378Z,2.50
2017-07-23T02:22:11.863Z,1.90
2017-07-23T02:24:39.367Z,2.33
2017-07-23T02:27:06.824Z,2.27
2017-07-23T02:29:34.298Z,2.50
2017-07-23T02:32:01.776Z,2.37
2017-07-23T02:34:29.258Z,2.30
2017-07-23T02:36:56.706Z,2.40
2017-07-23T02:39:24.176Z,2.30
2017-07-23T02:41:51.629Z,2.03
2017-07-23T02:44:19.115Z,2.30
2017-07-23T02:46:46.606Z,1.90
2017-07-23T02:49:14.225Z,2.40
2017-07-23T02:51:42.290Z,2.27
2017-07-23T02:54:09.742Z,2.53
2017-07-23T02:56:37.230Z,2.60
2017-07-23T02:59:04.673Z,2.20
2017-07-23T03:01:32.155Z,2.27
2017-07-23T03:03:59.604Z,2.10
2017-07-23T03:06:27.954Z,2.00
2017-07-23T03:08:55.397Z,2.07
2017-07-23T03:11:22.842Z,2.40
2017-07-23T03:13:51.522Z,2.30
2017-07-23T03:16:18.971Z,2.40
2017-07-23T03:18:46.440Z,2.47
2017-07-23T03:21:13.882Z,2.10
2017-07-23T03:23:41.374Z,2.20
2017-07-23T03:26:08.818Z,2.23
2017-07-23T03:28:36.286Z,2.30
2017-07-23T03:31:03.733Z,2.00
2017-07-23T03:33:31.229Z,2.40
2017-07-23T03:35:58.680Z,2.70
2017-07-23T03:38:26.351Z,2.50
2017-07-23T03:40:53.805Z,2.23
2017-07-23T03:43:21.259Z,2.00
2017-07-23T03:45:48.728Z,2.17
2017-07-23T03:48:16.172Z,1.90
2017-07-23T03:50:43.669Z,2.10
2017-07-23T03:53:11.142Z,2.37
2017-07-23T03:55:38.600Z,2.07
2017-07-23T03:58:06.073Z,2.33
2017-07-23T04:00:33.518Z,2.50
2017-07-23T04:03:00.987Z,2.30
2017-07-23T04:05:28.459Z,2.17
2017-07-23T04:07:55.926Z,1.80
2017-07-23T04:10:23.388Z,2.40
2017-07-23T04:12:50.874Z,1.93
2017-07-23T04:15:18.329Z,2.20
2017-07-23T04:17:45.798Z,2.13
2017-07-23T04:20:13.244Z,2.30
2017-07-23T04:22:40.751Z,2.07
2017-07-23T04:25:08.205Z,2.13
2017-07-23T04:27:35.694Z,2.00
2017-07-23T04:30:03.152Z,2.17
2017-07-23T04:32:30.647Z,2.00
2017-07-23T04:34:58.109Z,2.43
2017-07-23T04:37:25.589Z,2.00
2017-07-23T04:39:53.058Z,2.10
2017-07-23T04:42:21.311Z,2.00
2017-07-23T04:44:49.009Z,2.20
2017-07-23T04:47:16.475Z,1.93
2017-07-23T04:49:43.924Z,2.20
2017-07-23T04:52:11.411Z,2.30
2017-07-23T04:54:38.898Z,2.00
2017-07-23T04:57:06.343Z,2.10
2017-07-23T04:59:33.828Z,2.10
2017-07-23T05:02:01.300Z,2.20
2017-07-23T05:04:28.746Z,1.90
2017-07-23T05:06:56.249Z,2.00
2017-07-23T05:09:23.705Z,2.00
2017-07-23T05:11:51.188Z,2.03
2017-07-23T05:14:18.644Z,1.90
2017-07-23T05:16:46.130Z,1.80
2017-07-23T05:19:13.615Z,2.07
2017-07-23T05:21:41.090Z,1.70
2017-07-23T05:24:08.538Z,1.73
2017-07-23T05:26:36.018Z,2.00
2017-07-23T05:29:03.518Z,1.90
2017-07-23T05:31:30.981Z,2.00
2017-07-23T05:33:58.449Z,1.80
2017-07-23T05:36:25.887Z,1.70
2017-07-23T05:38:53.353Z,2.03
2017-07-23T05:41:20.825Z,1.70
2017-07-23T05:43:48.289Z,2.00
2017-07-23T05:46:15.770Z,1.80
2017-07-23T05:48:43.209Z,2.10
2017-07-23T05:51:10.699Z,1.63
2017-07-23T05:53:38.198Z,1.77
2017-07-23T05:56:05.659Z,1.90
2017-07-23T05:58:33.134Z,1.97
2017-07-23T06:01:00.617Z,1.80
2017-07-23T06:03:28.061Z,1.70
2017-07-23T06:05:55.530Z,1.73
2017-07-23T06:08:22.984Z,2.03
2017-07-23T06:10:50.449Z,1.77
2017-07-23T06:13:18.172Z,1.90
2017-07-23T06:15:45.618Z,1.93
2017-07-23T06:18:13.106Z,1.70
2017-07-23T06:20:40.563Z,1.80
2017-07-23T06:23:08.041Z,2.20
2017-07-23T06:25:35.536Z,1.70
2017-07-23T06:28:02.997Z,1.70
2017-07-23T06:30:30.490Z,1.90
2017-07-23T06:32:57.942Z,1.60
2017-07-23T06:35:25.420Z,1.73
2017-07-23T06:37:52.873Z,1.60
2017-07-23T06:40:20.421Z,1.60
2017-07-23T06:42:48.744Z,1.90
2017-07-23T06:45:16.323Z,1.60
2017-07-23T06:47:43.760Z,1.60
2017-07-23T06:50:11.215Z,1.97
2017-07-23T06:52:38.710Z,1.70
2017-07-23T06:55:06.201Z,1.60
2017-07-23T06:57:33.714Z,1.73
2017-07-23T07:00:01.179Z,1.70
2017-07-23T07:02:28.657Z,2.07
2017-07-23T07:04:56.098Z,1.77
2017-07-23T07:07:23.571Z,1.90
2017-07-23T07:09:51.030Z,1.80
2017-07-23T07:12:18.483Z,1.63
2017-07-23T07:14:45.977Z,1.70
2017-07-23T07:17:13.449Z,2.00
2017-07-23T07:19:40.933Z,1.63
2017-07-23T07:22:08.369Z,1.67
2017-07-23T07:24:35.860Z,1.77
2017-07-23T07:27:03.313Z,2.07
2017-07-23T07:29:30.794Z,1.90
2017-07-23T07:31:58.230Z,1.70
2017-07-23T07:34:25.694Z,1.83
2017-07-23T07:36:53.132Z,1.57
2017-07-23T07:39:20.613Z,2.00
2017-07-23T07:41:48.082Z,1.50
2017-07-23T07:44:15.575Z,1.50
2017-07-23T07:46:43.027Z,1.57
2017-07-23T07:49:10.498Z,1.57
2017-07-23T07:51:37.972Z,1.57
2017-07-23T07:54:06.049Z,1.77
2017-07-23T07:56:33.534Z,1.67
2017-07-23T07:59:00.998Z,1.67
2017-07-23T08:01:28.473Z,1.70
2017-07-23T08:03:55.917Z,1.60
2017-07-23T08:06:23.410Z,1.50
2017-07-23T08:08:50.881Z,1.60
2017-07-23T08:11:18.383Z,1.40
2017-07-23T08:13:45.870Z,1.70
2017-07-23T08:16:13.357Z,1.30
2017-07-23T08:18:40.788Z,1.60
2017-07-23T08:21:08.246Z,1.67
2017-07-23T08:23:35.700Z,1.97
2017-07-23T08:26:03.292Z,1.60
2017-07-23T08:28:30.754Z,1.57
2017-07-23T08:30:58.198Z,1.70
2017-07-23T08:33:25.686Z,1.53
2017-07-23T08:35:53.120Z,1.73
2017-07-23T08:38:20.600Z,1.60
2017-07-23T08:40:48.082Z,1.67
2017-07-23T08:43:15.744Z,1.60
2017-07-23T08:45:43.234Z,1.37
2017-07-23T08:48:10.697Z,1.50
2017-07-23T08:50:38.174Z,1.30
2017-07-23T08:53:05.774Z,1.30
2017-07-23T08:55:33.261Z,1.40
2017-07-23T08:58:00.711Z,1.40
2017-07-23T09:00:28.173Z,1.30
2017-07-23T09:02:55.697Z,1.40
2017-07-23T09:05:24.241Z,1.33
2017-07-23T09:07:51.691Z,1.23
2017-07-23T09:10:19.164Z,1.50
2017-07-23T09:12:46.611Z,1.60
2017-07-23T09:15:14.085Z,1.60
2017-07-23T09:17:41.854Z,1.80
2017-07-23T09:20:09.306Z,1.40
2017-07-23T09:22:36.782Z,1.50
2017-07-23T09:25:04.282Z,1.60
2017-07-23T09:27:32.112Z,1.30
2017-07-23T09:29:59.573Z,1.43
2017-07-23T09:32:27.064Z,1.40
2017-07-23T09:34:54.533Z,1.50
2017-07-23T09:37:22.009Z,1.43
2017-07-23T09:39:49.476Z,1.40
2017-07-23T09:42:16.945Z,1.60
2017-07-23T09:44:44.436Z,1.27
2017-07-23T09:47:11.876Z,1.50
2017-07-23T09:49:39.352Z,1.40
2017-07-23T09:52:06.840Z,1.50
2017-07-23T09:54:35.030Z,1.30
2017-07-23T09:57:03.134Z,1.10
2017-07-23T09:59:30.595Z,1.27
2017-07-23T10:01:58.089Z,1.50
2017-07-23T10:04:25.557Z,1.30
2017-07-23T10:07:39.620Z,1.40
2017-07-23T10:10:07.089Z,1.50
2017-07-23T10:12:34.536Z,1.30
2017-07-23T10:15:01.986Z,1.20
2017-07-23T10:17:29.465Z,1.50
2017-07-23T10:19:56.909Z,1.30
2017-07-23T10:22:24.386Z,1.43
2017-07-23T10:24:51.843Z,1.37
2017-07-23T10:27:19.384Z,1.43
2017-07-23T10:29:48.609Z,1.50
2017-07-23T10:32:16.194Z,1.23
2017-07-23T10:34:43.650Z,1.30
2017-07-23T10:37:11.110Z,1.40
2017-07-23T10:39:39.160Z,1.33
2017-07-23T10:42:06.605Z,1.40
2017-07-23T10:44:34.922Z,1.20
2017-07-23T10:47:02.411Z,1.57
2017-07-23T10:49:29.931Z,1.30
2017-07-23T10:51:57.399Z,1.27
2017-07-23T10:54:24.877Z,1.73
2017-07-23T10:56:52.370Z,1.20
2017-07-23T10:59:20.030Z,1.40
2017-07-23T11:01:47.473Z,1.30
2017-07-23T11:04:14.986Z,1.13
2017-07-23T11:06:42.492Z,1.30
2017-07-23T11:09:09.953Z,1.17
2017-07-23T11:11:37.452Z,1.33
2017-07-23T11:14:04.926Z,1.20
2017-07-23T11:16:32.397Z,1.10
2017-07-23T11:18:59.843Z,1.20
2017-07-23T11:21:27.321Z,1.30
2017-07-23T11:23:54.765Z,1.37
2017-07-23T11:26:22.236Z,1.10
2017-07-23T11:28:49.749Z,1.20
2017-07-23T11:31:17.245Z,1.20
2017-07-23T11:33:44.708Z,1.40
2017-07-23T11:36:12.162Z,1.10
2017-07-23T11:38:40.004Z,1.40
2017-07-23T11:41:08.983Z,1.30
2017-07-23T11:43:36.484Z,1.37
2017-07-23T11:46:06.392Z,1.30
2017-07-23T11:48:34.886Z,1.10
2017-07-23T11:51:02.342Z,1.20
2017-07-23T11:53:29.801Z,1.10
2017-07-23T11:55:57.287Z,1.30
2017-07-23T11:58:24.789Z,1.10
2017-07-23T12:00:52.803Z,1.10
2017-07-23T12:03:20.271Z,1.10
2017-07-23T12:05:47.750Z,1.20
2017-07-23T12:08:15.214Z,1.23
2017-07-23T12:10:43.373Z,1.30
2017-07-23T12:13:10.868Z,1.20
2017-07-23T12:15:39.001Z,1.20
2017-07-23T12:18:07.482Z,1.17
2017-07-23T12:20:34.969Z,1.23
2017-07-23T12:23:03.010Z,1.30
2017-07-23T12:25:30.569Z,1.00
2017-07-23T12:28:01.074Z,1.20
2017-07-23T12:30:28.569Z,1.20
2017-07-23T12:32:56.141Z,1.00
2017-07-23T12:35:23.609Z,1.03
2017-07-23T12:37:51.052Z,1.20
2017-07-23T12:40:19.448Z,1.20
2017-07-23T12:42:47.638Z,1.00
2017-07-23T12:45:16.743Z,1.10
2017-07-23T12:47:46.978Z,1.10
2017-07-23T12:50:17.224Z,1.30
2017-07-23T12:52:44.713Z,1.10
2017-07-23T12:55:12.188Z,1.10
2017-07-23T12:57:39.681Z,1.10
2017-07-23T13:00:07.162Z,1.10
2017-07-23T13:02:34.620Z,1.03
2017-07-23T13:05:02.120Z,1.13
2017-07-23T13:07:29.565Z,1.20
2017-07-23T13:09:59.742Z,0.90
2017-07-23T13:12:28.160Z,1.20
2017-07-23T13:14:56.274Z,1.20
2017-07-23T13:17:23.805Z,1.07
2017-07-23T13:19:51.471Z,1.10
2017-07-23T13:22:18.942Z,1.03
2017-07-23T13:24:46.409Z,1.20
2017-07-23T13:27:13.849Z,1.03
2017-07-23T13:29:41.325Z,1.20
2017-07-23T13:32:08.792Z,1.10
2017-07-23T13:34:36.282Z,1.10
2017-07-23T13:37:03.758Z,1.00
2017-07-23T13:39:31.202Z,1.23
2017-07-23T13:41:58.680Z,1.00
2017-07-23T13:44:26.154Z,1.13
2017-07-23T13:46:53.660Z,1.63
2017-07-23T13:49:21.117Z,1.53
2017-07-23T13:51:48.640Z,1.73
2017-07-23T13:54:16.094Z,1.47
2017-07-23T13:56:43.575Z,1.40
2017-07-23T13:59:11.070Z,1.50
2017-07-23T14:01:38.520Z,1.33
2017-07-23T14:04:06.000Z,1.57
2017-07-23T14:06:33.463Z,1.50
2017-07-23T14:09:00.940Z,1.30
2017-07-23T14:11:28.381Z,1.57
2017-07-23T14:13:55.858Z,1.33
2017-07-23T14:16:23.326Z,1.20
2017-07-23T14:18:50.812Z,1.60
2017-07-23T14:21:18.252Z,1.40
2017-07-23T14:23:46.178Z,1.70
2017-07-23T14:26:13.628Z,1.70
2017-07-23T14:28:41.089Z,1.90
2017-07-23T14:31:08.581Z,1.20
2017-07-23T14:33:36.366Z,1.47
2017-07-23T14:36:03.990Z,1.37
2017-07-23T14:38:31.478Z,2.53
2017-07-23T14:40:59.106Z,1.60
2017-07-23T14:43:26.591Z,2.17
2017-07-23T14:45:54.064Z,2.13
2017-07-23T14:48:21.527Z,2.20
2017-07-23T14:50:49.134Z,1.40
2017-07-23T14:53:16.626Z,1.37
2017-07-23T14:55:44.081Z,1.70
2017-07-23T14:58:11.570Z,2.00
2017-07-23T15:00:39.021Z,1.40
2017-07-23T15:03:06.697Z,1.60
2017-07-23T15:05:34.162Z,2.10
2017-07-23T15:08:01.823Z,1.60
2017-07-23T15:10:29.404Z,1.63
2017-07-23T15:12:56.901Z,1.70
2017-07-23T15:15:24.349Z,1.60
2017-07-23T15:17:51.810Z,1.30
2017-07-23T15:20:19.273Z,1.40
2017-07-23T15:22:46.728Z,1.60
2017-07-23T15:25:14.226Z,1.90
2017-07-23T15:27:41.665Z,1.53
2017-07-23T15:30:09.150Z,1.30
2017-07-23T15:32:36.619Z,1.30
2017-07-23T15:35:04.116Z,1.40
2017-07-23T15:37:31.566Z,1.57
2017-07-23T15:39:59.052Z,1.30
2017-07-23T15:42:26.513Z,1.43
2017-07-23T15:47:27.766Z,1.37
2017-07-23T15:49:55.270Z,1.43
2017-07-23T15:52:23.340Z,1.53
2017-07-23T15:54:50.830Z,1.80
2017-07-23T15:57:18.282Z,1.50
2017-07-23T15:59:45.899Z,1.33
2017-07-23T16:02:13.359Z,1.40
2017-07-23T16:04:40.838Z,1.83
2017-07-23T16:07:08.328Z,1.70
2017-07-23T16:09:35.790Z,1.80
2017-07-23T16:12:03.267Z,1.37
2017-07-23T16:14:30.712Z,1.27
2017-07-23T16:16:58.180Z,1.40
2017-07-23T16:19:25.677Z,1.20
2017-07-23T16:21:53.116Z,1.40
2017-07-23T16:24:20.593Z,1.57
2017-07-23T16:26:48.050Z,1.53
2017-07-23T16:29:15.676Z,1.47
2017-07-23T16:31:43.145Z,1.40
2017-07-23T16:34:10.619Z,1.33
2017-07-23T16:36:38.076Z,1.67
2017-07-23T16:39:05.564Z,1.37
2017-07-23T16:41:33.024Z,1.63
2017-07-23T16:44:00.537Z,1.70
2017-07-23T16:46:28.030Z,1.50
2017-07-23T16:48:55.486Z,1.30
2017-07-23T16:51:23.065Z,1.80
2017-07-23T16:53:50.539Z,1.27
2017-07-23T16:56:17.981Z,1.60
2017-07-23T16:58:45.468Z,1.27
2017-07-23T17:01:12.918Z,1.30
2017-07-23T17:03:40.394Z,1.33
2017-07-23T17:06:07.871Z,1.70
2017-07-23T17:08:35.357Z,1.57
2017-07-23T17:11:02.810Z,1.40
2017-07-23T17:13:30.297Z,1.33
2017-07-23T17:15:57.763Z,1.27
2017-07-23T17:18:25.255Z,1.53
2017-07-23T17:20:52.719Z,1.40
2017-07-23T17:23:20.257Z,1.33
2017-07-23T17:25:47.728Z,1.40
2017-07-23T17:28:15.203Z,1.50
2017-07-23T17:30:42.702Z,1.30
2017-07-23T17:33:10.154Z,1.50
2017-07-23T17:35:37.634Z,1.43
2017-07-23T17:38:05.110Z,1.50
2017-07-23T17:40:32.597Z,1.73
2017-07-23T17:43:00.048Z,1.53
2017-07-23T17:45:27.525Z,1.67
2017-07-23T17:47:54.970Z,1.57
2017-07-23T17:50:22.441Z,1.60
2017-07-23T17:52:49.926Z,1.70
2017-07-23T17:55:17.394Z,1.63
2017-07-23T17:57:44.872Z,1.60
2017-07-23T18:00:12.430Z,1.40
2017-07-23T18:02:39.980Z,1.80
2017-07-23T18:05:07.438Z,1.50
2017-07-23T18:07:34.934Z,1.50
2017-07-23T18:10:02.382Z,1.90
2017-07-23T18:12:29.922Z,1.60
2017-07-23T18:14:57.363Z,1.50
2017-07-23T18:17:24.839Z,1.63
2017-07-23T18:19:52.322Z,1.90
2017-07-23T18:22:19.780Z,1.50
2017-07-23T18:24:47.296Z,1.83
2017-07-23T18:27:14.750Z,1.50
2017-07-23T18:29:42.251Z,1.70
2017-07-23T18:32:09.733Z,1.80
2017-07-23T18:34:37.215Z,1.40
2017-07-23T18:37:04.739Z,1.60
2017-07-23T18:39:32.229Z,1.70
2017-07-23T18:41:59.687Z,1.50
2017-07-23T18:44:27.192Z,1.57
2017-07-23T18:46:54.661Z,1.20
2017-07-23T18:49:22.115Z,1.73
2017-07-23T18:51:49.610Z,1.73
2017-07-23T18:54:17.113Z,1.60
2017-07-23T18:56:45.302Z,2.07
2017-07-23T18:59:12.743Z,1.60
2017-07-23T19:01:40.226Z,1.70
2017-07-23T19:04:07.703Z,1.87
2017-07-23T19:06:35.836Z,1.77
2017-07-23T19:09:03.342Z,1.70
2017-07-23T19:11:30.825Z,1.60
2017-07-23T19:13:58.314Z,1.83
2017-07-23T19:16:26.109Z,1.93
2017-07-23T19:18:53.613Z,1.87
2017-07-23T19:21:21.067Z,1.57
2017-07-23T19:23:48.555Z,1.30
2017-07-23T19:26:16.009Z,1.70
2017-07-23T19:28:43.502Z,1.83
2017-07-23T19:31:10.954Z,1.50
2017-07-23T19:33:38.551Z,1.83
2017-07-23T19:36:06.031Z,2.07
2017-07-23T19:38:33.502Z,1.30
2017-07-23T19:41:00.983Z,1.50
2017-07-23T19:43:28.436Z,1.47
2017-07-23T19:45:55.935Z,1.47
2017-07-23T19:48:23.452Z,1.57
2017-07-23T19:50:50.958Z,1.73
2017-07-23T19:53:18.463Z,1.30
2017-07-23T19:55:45.944Z,1.90
2017-07-23T19:58:13.433Z,1.60
2017-07-23T20:00:40.887Z,2.33
2017-07-23T20:03:08.401Z,2.00
2017-07-23T20:05:35.858Z,1.60
2017-07-23T20:08:03.342Z,1.37
2017-07-23T20:10:30.849Z,1.40
2017-07-23T20:12:58.338Z,1.30
2017-07-23T20:15:25.811Z,1.50
2017-07-23T20:17:53.292Z,1.40
2017-07-23T20:20:20.737Z,1.60
2017-07-23T20:22:48.234Z,2.03
2017-07-23T20:25:16.059Z,1.57
2017-07-23T20:27:43.515Z,1.60
2017-07-23T20:30:11.027Z,1.50
2017-07-23T20:32:38.486Z,1.50
2017-07-23T20:35:06.261Z,1.50
2017-07-23T20:37:33.714Z,1.40
2017-07-23T20:40:01.181Z,1.80
2017-07-23T20:42:28.642Z,1.50
2017-07-23T20:44:56.151Z,1.53
2017-07-23T20:47:23.657Z,1.50
2017-07-23T20:49:51.138Z,1.50
2017-07-23T20:52:18.642Z,1.90
2017-07-23T20:54:46.127Z,1.80
2017-07-23T20:57:13.761Z,2.10
2017-07-23T20:59:41.248Z,2.00
2017-07-23T21:02:08.721Z,1.67
2017-07-23T21:04:36.190Z,2.00
2017-07-23T21:07:03.680Z,1.80
2017-07-23T21:09:31.122Z,1.80
2017-07-23T21:11:58.593Z,1.80
2017-07-23T21:14:26.041Z,1.80
2017-07-23T21:16:53.549Z,1.83
2017-07-23T21:19:21.029Z,1.90
2017-07-23T21:21:48.513Z,1.87
2017-07-23T21:24:15.994Z,1.70
2017-07-23T21:26:43.448Z,2.20
2017-07-23T21:29:10.930Z,1.97
2017-07-23T21:31:38.370Z,1.73
2017-07-23T21:34:05.850Z,1.70
2017-07-23T21:36:33.313Z,1.67
2017-07-23T21:39:00.826Z,1.60
2017-07-23T21:41:28.326Z,1.73
2017-07-23T21:43:55.781Z,1.70
2017-07-23T21:46:23.306Z,1.70
2017-07-23T21:48:50.755Z,1.70
2017-07-23T21:51:18.257Z,1.80
2017-07-23T21:53:45.752Z,1.40
2017-07-23T21:56:13.223Z,1.57
2017-07-23T21:58:40.678Z,1.43
2017-07-23T22:01:08.145Z,1.60
2017-07-23T22:03:36.229Z,1.80
2017-07-23T22:06:03.725Z,1.67
2017-07-23T22:08:31.184Z,1.40
2017-07-23T22:10:58.670Z,1.60
2017-07-23T22:13:26.137Z,1.60
2017-07-23T22:15:53.578Z,1.50
2017-07-23T22:18:21.062Z,1.70
2017-07-23T22:20:48.534Z,1.50
2017-07-23T22:23:16.010Z,2.03
2017-07-23T22:25:43.501Z,1.13
2017-07-23T22:28:10.957Z,1.60
2017-07-23T22:30:38.452Z,1.40
2017-07-23T22:33:05.929Z,1.50
2017-07-23T22:35:33.379Z,1.40
2017-07-23T22:38:00.860Z,1.60
2017-07-23T22:40:28.314Z,1.30
2017-07-23T22:42:55.809Z,1.30
2017-07-23T22:45:23.293Z,1.83
2017-07-23T22:47:50.749Z,1.70
2017-07-23T22:50:18.629Z,1.60
2017-07-23T22:52:46.100Z,2.00
2017-07-23T22:55:13.564Z,1.80
2017-07-23T22:57:41.086Z,1.60
2017-07-23T23:00:08.542Z,1.30
2017-07-23T23:02:36.038Z,1.50
2017-07-23T23:05:03.515Z,1.60
2017-07-23T23:07:30.951Z,1.60
2017-07-23T23:09:58.721Z,1.50
2017-07-23T23:12:26.194Z,1.40
2017-07-23T23:14:53.646Z,1.30
2017-07-23T23:17:21.163Z,1.50
2017-07-23T23:19:48.621Z,1.43
2017-07-23T23:22:16.111Z,1.67
2017-07-23T23:24:43.584Z,1.40
2017-07-23T23:27:11.049Z,1.60
2017-07-23T23:29:38.545Z,1.57
2017-07-23T23:32:06.515Z,1.50
2017-07-23T23:34:33.998Z,1.30
2017-07-23T23:37:01.672Z,1.57
2017-07-23T23:39:29.131Z,1.97
2017-07-23T23:41:56.602Z,1.77
2017-07-23T23:44:24.081Z,1.70
2017-07-23T23:46:51.607Z,1.50
2017-07-23T23:49:19.104Z,1.50
2017-07-23T23:51:46.558Z,1.40
2017-07-23T23:54:14.021Z,1.97
2017-07-23T23:56:41.462Z,1.60
2017-07-23T23:59:08.972Z,2.03
